sensor_id;sensor_type;location;lat;lon;timestamp;pressure;altitude;pressure_sealevel;temperature;humidity
62057;BME280;48016;50.284;18.860;2023-05-09T00:01:08;99158.06;;;5.06;69.92
62057;BME280;48016;50.284;18.860;2023-05-09T00:03:36;99152.03;;;5.05;69.84
62057;BME280;48016;50.284;18.860;2023-05-09T00:06:02;99153.64;;;5.03;69.83
62057;BME280;48016;50.284;18.860;2023-05-09T00:08:29;99150.45;;;5.01;70.19
62057;BME280;48016;50.284;18.860;2023-05-09T00:10:56;99156.06;;;5.00;70.08
62057;BME280;48016;50.284;18.860;2023-05-09T00:13:23;99153.84;;;4.97;69.90
62057;BME280;48016;50.284;18.860;2023-05-09T00:15:50;99156.48;;;4.95;70.39
62057;BME280;48016;50.284;18.860;2023-05-09T00:18:19;99154.68;;;4.91;70.73
62057;BME280;48016;50.284;18.860;2023-05-09T00:20:48;99152.11;;;4.87;70.67
62057;BME280;48016;50.284;18.860;2023-05-09T00:23:15;99149.95;;;4.84;70.73
62057;BME280;48016;50.284;18.860;2023-05-09T00:25:42;99145.73;;;4.81;70.59
62057;BME280;48016;50.284;18.860;2023-05-09T00:28:09;99140.22;;;4.78;70.76
62057;BME280;48016;50.284;18.860;2023-05-09T00:30:35;99139.17;;;4.76;70.82
62057;BME280;48016;50.284;18.860;2023-05-09T00:33:02;99138.38;;;4.73;71.38
62057;BME280;48016;50.284;18.860;2023-05-09T00:35:29;99135.39;;;4.70;71.46
62057;BME280;48016;50.284;18.860;2023-05-09T00:37:57;99134.42;;;4.66;71.59
62057;BME280;48016;50.284;18.860;2023-05-09T00:40:24;99139.72;;;4.64;71.72
62057;BME280;48016;50.284;18.860;2023-05-09T00:42:51;99138.10;;;4.62;72.04
62057;BME280;48016;50.284;18.860;2023-05-09T00:45:18;99136.27;;;4.58;72.14
62057;BME280;48016;50.284;18.860;2023-05-09T00:47:44;99131.87;;;4.54;72.49
62057;BME280;48016;50.284;18.860;2023-05-09T00:50:11;99125.63;;;4.51;72.37
62057;BME280;48016;50.284;18.860;2023-05-09T00:52:38;99126.52;;;4.49;72.48
62057;BME280;48016;50.284;18.860;2023-05-09T00:55:06;99123.77;;;4.45;72.59
62057;BME280;48016;50.284;18.860;2023-05-09T00:57:34;99122.60;;;4.43;72.79
62057;BME280;48016;50.284;18.860;2023-05-09T01:00:01;99118.92;;;4.41;72.48
62057;BME280;48016;50.284;18.860;2023-05-09T01:02:29;99117.34;;;4.38;72.63
62057;BME280;48016;50.284;18.860;2023-05-09T01:04:57;99116.45;;;4.35;72.69
62057;BME280;48016;50.284;18.860;2023-05-09T01:07:31;99115.66;;;4.33;72.95
62057;BME280;48016;50.284;18.860;2023-05-09T01:11:31;99116.08;;;4.29;73.23
62057;BME280;48016;50.284;18.860;2023-05-09T01:16:48;99115.54;;;4.24;73.66
62057;BME280;48016;50.284;18.860;2023-05-09T01:22:29;99113.16;;;4.18;73.51
62057;BME280;48016;50.284;18.860;2023-05-09T01:25:29;99114.27;;;4.16;73.82
62057;BME280;48016;50.284;18.860;2023-05-09T01:28:12;99111.61;;;4.13;73.59
62057;BME280;48016;50.284;18.860;2023-05-09T01:30:43;99110.08;;;4.09;74.24
62057;BME280;48016;50.284;18.860;2023-05-09T01:33:15;99106.56;;;4.09;73.93
62057;BME280;48016;50.284;18.860;2023-05-09T01:35:47;99104.58;;;4.06;74.00
62057;BME280;48016;50.284;18.860;2023-05-09T01:38:18;99111.46;;;4.04;73.97
62057;BME280;48016;50.284;18.860;2023-05-09T01:40:52;99104.38;;;4.02;74.03
62057;BME280;48016;50.284;18.860;2023-05-09T01:43:21;99103.89;;;4.00;74.16
62057;BME280;48016;50.284;18.860;2023-05-09T01:45:51;99101.60;;;3.97;75.00
62057;BME280;48016;50.284;18.860;2023-05-09T01:48:19;99099.23;;;3.95;74.69
62057;BME280;48016;50.284;18.860;2023-05-09T01:50:47;99100.38;;;3.93;74.86
62057;BME280;48016;50.284;18.860;2023-05-09T01:53:16;99096.63;;;3.91;74.72
62057;BME280;48016;50.284;18.860;2023-05-09T01:55:43;99097.30;;;3.89;75.01
62057;BME280;48016;50.284;18.860;2023-05-09T01:58:11;99098.11;;;3.88;74.66
62057;BME280;48016;50.284;18.860;2023-05-09T02:00:38;99097.86;;;3.87;74.87
62057;BME280;48016;50.284;18.860;2023-05-09T02:03:05;99100.86;;;3.86;74.87
62057;BME280;48016;50.284;18.860;2023-05-09T02:05:33;99100.20;;;3.87;74.82
62057;BME280;48016;50.284;18.860;2023-05-09T02:08:00;99098.14;;;3.86;74.60
62057;BME280;48016;50.284;18.860;2023-05-09T02:10:27;99095.95;;;3.84;74.84
62057;BME280;48016;50.284;18.860;2023-05-09T02:12:54;99091.07;;;3.82;75.25
62057;BME280;48016;50.284;18.860;2023-05-09T02:15:23;99093.34;;;3.79;75.11
62057;BME280;48016;50.284;18.860;2023-05-09T02:17:50;99090.58;;;3.78;74.81
62057;BME280;48016;50.284;18.860;2023-05-09T02:20:16;99092.40;;;3.75;75.14
62057;BME280;48016;50.284;18.860;2023-05-09T02:22:43;99094.66;;;3.74;75.10
62057;BME280;48016;50.284;18.860;2023-05-09T02:25:11;99091.76;;;3.72;75.28
62057;BME280;48016;50.284;18.860;2023-05-09T02:27:43;99090.38;;;3.70;75.70
62057;BME280;48016;50.284;18.860;2023-05-09T02:30:14;99089.02;;;3.68;75.59
62057;BME280;48016;50.284;18.860;2023-05-09T02:32:43;99087.62;;;3.66;75.80
62057;BME280;48016;50.284;18.860;2023-05-09T02:35:11;99082.68;;;3.65;75.84
62057;BME280;48016;50.284;18.860;2023-05-09T02:37:40;99079.47;;;3.65;76.03
62057;BME280;48016;50.284;18.860;2023-05-09T02:40:07;99078.79;;;3.62;76.00
62057;BME280;48016;50.284;18.860;2023-05-09T02:42:35;99076.14;;;3.61;76.09
62057;BME280;48016;50.284;18.860;2023-05-09T02:45:03;99078.67;;;3.60;76.04
62057;BME280;48016;50.284;18.860;2023-05-09T02:47:30;99078.23;;;3.61;76.09
62057;BME280;48016;50.284;18.860;2023-05-09T02:49:57;99079.67;;;3.61;75.78
62057;BME280;48016;50.284;18.860;2023-05-09T02:52:24;99077.17;;;3.61;75.81
62057;BME280;48016;50.284;18.860;2023-05-09T02:54:51;99078.48;;;3.61;75.96
62057;BME280;48016;50.284;18.860;2023-05-09T02:57:18;99078.23;;;3.61;75.85
62057;BME280;48016;50.284;18.860;2023-05-09T02:59:44;99083.21;;;3.61;76.25
62057;BME280;48016;50.284;18.860;2023-05-09T03:02:11;99083.00;;;3.60;76.44
62057;BME280;48016;50.284;18.860;2023-05-09T03:04:38;99081.67;;;3.59;76.43
62057;BME280;48016;50.284;18.860;2023-05-09T03:07:04;99081.19;;;3.59;76.66
62057;BME280;48016;50.284;18.860;2023-05-09T03:09:31;99078.14;;;3.59;76.56
62057;BME280;48016;50.284;18.860;2023-05-09T03:11:58;99078.44;;;3.60;76.65
62057;BME280;48016;50.284;18.860;2023-05-09T03:14:24;99079.18;;;3.60;76.61
62057;BME280;48016;50.284;18.860;2023-05-09T03:16:51;99079.75;;;3.59;76.88
62057;BME280;48016;50.284;18.860;2023-05-09T03:19:18;99077.52;;;3.59;76.78
62057;BME280;48016;50.284;18.860;2023-05-09T03:21:44;99079.96;;;3.57;77.08
62057;BME280;48016;50.284;18.860;2023-05-09T03:24:11;99077.59;;;3.58;76.99
62057;BME280;48016;50.284;18.860;2023-05-09T03:26:38;99076.33;;;3.59;76.92
62057;BME280;48016;50.284;18.860;2023-05-09T03:29:04;99076.01;;;3.60;77.13
62057;BME280;48016;50.284;18.860;2023-05-09T03:31:31;99076.84;;;3.61;77.33
62057;BME280;48016;50.284;18.860;2023-05-09T03:33:58;99080.59;;;3.61;77.54
62057;BME280;48016;50.284;18.860;2023-05-09T03:36:24;99080.89;;;3.63;77.32
62057;BME280;48016;50.284;18.860;2023-05-09T03:38:51;99077.95;;;3.67;77.40
62057;BME280;48016;50.284;18.860;2023-05-09T03:41:18;99074.77;;;3.68;77.40
62057;BME280;48016;50.284;18.860;2023-05-09T03:43:45;99076.17;;;3.70;77.68
62057;BME280;48016;50.284;18.860;2023-05-09T03:46:11;99076.28;;;3.72;77.64
62057;BME280;48016;50.284;18.860;2023-05-09T03:48:38;99078.07;;;3.74;77.93
62057;BME280;48016;50.284;18.860;2023-05-09T03:51:04;99076.07;;;3.80;77.52
62057;BME280;48016;50.284;18.860;2023-05-09T03:53:31;99082.27;;;3.88;77.45
62057;BME280;48016;50.284;18.860;2023-05-09T03:55:58;99082.03;;;3.94;77.22
62057;BME280;48016;50.284;18.860;2023-05-09T03:58:24;99084.10;;;4.00;77.32
62057;BME280;48016;50.284;18.860;2023-05-09T04:00:51;99079.77;;;4.07;77.01
62057;BME280;48016;50.284;18.860;2023-05-09T04:03:19;99080.47;;;4.15;76.76
62057;BME280;48016;50.284;18.860;2023-05-09T04:05:45;99080.20;;;4.23;76.87
62057;BME280;48016;50.284;18.860;2023-05-09T04:08:12;99079.35;;;4.31;76.74
62057;BME280;48016;50.284;18.860;2023-05-09T04:10:39;99080.08;;;4.41;76.51
62057;BME280;48016;50.284;18.860;2023-05-09T04:13:06;99079.14;;;4.56;76.40
62057;BME280;48016;50.284;18.860;2023-05-09T04:15:33;99075.42;;;4.75;76.00
62057;BME280;48016;50.284;18.860;2023-05-09T04:17:59;99077.91;;;4.98;75.45
62057;BME280;48016;50.284;18.860;2023-05-09T04:20:26;99082.16;;;5.30;75.04
62057;BME280;48016;50.284;18.860;2023-05-09T04:22:53;99088.73;;;5.69;74.11
62057;BME280;48016;50.284;18.860;2023-05-09T04:25:19;99086.98;;;6.02;73.10
62057;BME280;48016;50.284;18.860;2023-05-09T04:27:46;99087.67;;;6.36;72.22
62057;BME280;48016;50.284;18.860;2023-05-09T04:30:13;99081.17;;;6.63;71.57
62057;BME280;48016;50.284;18.860;2023-05-09T04:32:40;99078.39;;;6.84;71.18
62057;BME280;48016;50.284;18.860;2023-05-09T04:35:12;99072.73;;;7.04;70.74
62057;BME280;48016;50.284;18.860;2023-05-09T04:37:39;99074.05;;;7.24;69.50
62057;BME280;48016;50.284;18.860;2023-05-09T04:40:06;99069.20;;;7.28;67.88
62057;BME280;48016;50.284;18.860;2023-05-09T04:42:34;99070.20;;;7.33;68.26
62057;BME280;48016;50.284;18.860;2023-05-09T04:45:01;99068.20;;;7.44;68.26
62057;BME280;48016;50.284;18.860;2023-05-09T04:47:28;99067.78;;;7.58;67.89
62057;BME280;48016;50.284;18.860;2023-05-09T04:49:54;99063.98;;;7.70;67.32
62057;BME280;48016;50.284;18.860;2023-05-09T04:52:21;99059.40;;;7.80;67.18
62057;BME280;48016;50.284;18.860;2023-05-09T04:54:48;99062.34;;;7.90;66.99
62057;BME280;48016;50.284;18.860;2023-05-09T04:57:15;99061.57;;;7.98;66.32
62057;BME280;48016;50.284;18.860;2023-05-09T04:59:42;99059.90;;;8.20;66.32
62057;BME280;48016;50.284;18.860;2023-05-09T05:02:08;99062.05;;;8.45;65.89
62057;BME280;48016;50.284;18.860;2023-05-09T05:04:35;99056.83;;;8.66;65.60
62057;BME280;48016;50.284;18.860;2023-05-09T05:07:01;99058.89;;;8.79;64.17
62057;BME280;48016;50.284;18.860;2023-05-09T05:09:28;99061.15;;;8.94;63.63
62057;BME280;48016;50.284;18.860;2023-05-09T05:11:55;99059.91;;;9.11;63.10
62057;BME280;48016;50.284;18.860;2023-05-09T05:14:21;99063.88;;;9.20;62.19
62057;BME280;48016;50.284;18.860;2023-05-09T05:16:48;99058.93;;;9.38;62.53
62057;BME280;48016;50.284;18.860;2023-05-09T05:19:14;99064.23;;;9.61;61.94
62057;BME280;48016;50.284;18.860;2023-05-09T05:21:41;99059.38;;;9.73;60.99
62057;BME280;48016;50.284;18.860;2023-05-09T05:24:08;99054.08;;;9.97;60.84
62057;BME280;48016;50.284;18.860;2023-05-09T05:26:34;99056.33;;;10.18;60.15
62057;BME280;48016;50.284;18.860;2023-05-09T05:29:01;99059.34;;;10.30;59.20
62057;BME280;48016;50.284;18.860;2023-05-09T05:31:27;99058.98;;;10.41;58.75
62057;BME280;48016;50.284;18.860;2023-05-09T05:33:54;99053.15;;;10.63;58.23
62057;BME280;48016;50.284;18.860;2023-05-09T05:36:21;99051.04;;;10.90;58.00
62057;BME280;48016;50.284;18.860;2023-05-09T05:38:47;99049.23;;;11.02;56.52
62057;BME280;48016;50.284;18.860;2023-05-09T05:41:14;99050.52;;;11.09;56.47
62057;BME280;48016;50.284;18.860;2023-05-09T05:43:40;99046.16;;;11.33;56.25
62057;BME280;48016;50.284;18.860;2023-05-09T05:46:07;99043.50;;;11.55;56.27
62057;BME280;48016;50.284;18.860;2023-05-09T05:48:34;99046.58;;;11.73;54.72
62057;BME280;48016;50.284;18.860;2023-05-09T05:51:01;99041.60;;;11.86;54.49
62057;BME280;48016;50.284;18.860;2023-05-09T05:53:27;99042.17;;;11.89;53.93
62057;BME280;48016;50.284;18.860;2023-05-09T05:55:54;99043.53;;;11.96;53.40
62057;BME280;48016;50.284;18.860;2023-05-09T05:58:20;99050.52;;;12.10;53.54
62057;BME280;48016;50.284;18.860;2023-05-09T06:00:47;99041.61;;;12.18;52.52
62057;BME280;48016;50.284;18.860;2023-05-09T06:03:14;99037.23;;;12.33;52.86
62057;BME280;48016;50.284;18.860;2023-05-09T06:05:45;99039.44;;;12.40;51.96
62057;BME280;48016;50.284;18.860;2023-05-09T06:08:12;99036.15;;;12.37;51.28
62057;BME280;48016;50.284;18.860;2023-05-09T06:10:39;99032.98;;;12.34;51.38
62057;BME280;48016;50.284;18.860;2023-05-09T06:13:05;99029.02;;;12.29;51.24
62057;BME280;48016;50.284;18.860;2023-05-09T06:15:32;99034.05;;;12.36;51.63
62057;BME280;48016;50.284;18.860;2023-05-09T06:17:58;99034.52;;;12.63;51.51
62057;BME280;48016;50.284;18.860;2023-05-09T06:20:25;99032.55;;;13.01;51.06
62057;BME280;48016;50.284;18.860;2023-05-09T06:22:52;99033.30;;;13.19;50.29
62057;BME280;48016;50.284;18.860;2023-05-09T06:25:19;99033.95;;;13.45;50.06
62057;BME280;48016;50.284;18.860;2023-05-09T06:27:45;99034.04;;;13.58;48.51
62057;BME280;48016;50.284;18.860;2023-05-09T06:30:12;99029.98;;;13.61;48.91
62057;BME280;48016;50.284;18.860;2023-05-09T06:32:39;99022.89;;;13.47;48.31
62057;BME280;48016;50.284;18.860;2023-05-09T06:35:06;99026.09;;;13.35;48.00
62057;BME280;48016;50.284;18.860;2023-05-09T06:37:33;99023.68;;;13.13;47.81
62057;BME280;48016;50.284;18.860;2023-05-09T06:40:00;99018.95;;;13.07;48.38
62057;BME280;48016;50.284;18.860;2023-05-09T06:42:26;99015.06;;;13.19;47.97
62057;BME280;48016;50.284;18.860;2023-05-09T06:44:54;99018.65;;;13.23;47.94
62057;BME280;48016;50.284;18.860;2023-05-09T06:47:21;99011.32;;;13.41;48.00
62057;BME280;48016;50.284;18.860;2023-05-09T06:49:47;99007.02;;;13.57;47.42
62057;BME280;48016;50.284;18.860;2023-05-09T06:52:14;99007.80;;;13.58;46.71
62057;BME280;48016;50.284;18.860;2023-05-09T06:54:41;98996.90;;;13.55;46.48
62057;BME280;48016;50.284;18.860;2023-05-09T06:57:08;98997.52;;;13.63;46.46
62057;BME280;48016;50.284;18.860;2023-05-09T06:59:35;98991.02;;;13.93;46.51
62057;BME280;48016;50.284;18.860;2023-05-09T07:02:01;98987.61;;;14.24;45.10
62057;BME280;48016;50.284;18.860;2023-05-09T07:04:28;98988.81;;;14.34;44.24
62057;BME280;48016;50.284;18.860;2023-05-09T07:06:54;98987.55;;;14.30;43.29
62057;BME280;48016;50.284;18.860;2023-05-09T07:09:21;98996.55;;;14.34;43.47
62057;BME280;48016;50.284;18.860;2023-05-09T07:11:54;98988.13;;;14.35;43.03
62057;BME280;48016;50.284;18.860;2023-05-09T07:14:20;98983.42;;;14.41;42.99
62057;BME280;48016;50.284;18.860;2023-05-09T07:16:47;98997.16;;;14.37;42.99
62057;BME280;48016;50.284;18.860;2023-05-09T07:19:13;98991.80;;;14.33;42.31
62057;BME280;48016;50.284;18.860;2023-05-09T07:21:40;98987.45;;;14.24;42.00
62057;BME280;48016;50.284;18.860;2023-05-09T07:24:07;98977.73;;;14.19;41.76
62057;BME280;48016;50.284;18.860;2023-05-09T07:26:34;98974.73;;;14.17;41.78
62057;BME280;48016;50.284;18.860;2023-05-09T07:29:01;98981.27;;;14.03;41.44
62057;BME280;48016;50.284;18.860;2023-05-09T07:31:28;98980.82;;;13.81;41.45
62057;BME280;48016;50.284;18.860;2023-05-09T07:33:54;98982.79;;;13.75;41.94
62057;BME280;48016;50.284;18.860;2023-05-09T07:36:21;98974.47;;;13.81;42.40
62057;BME280;48016;50.284;18.860;2023-05-09T07:38:48;98970.83;;;13.89;42.29
62057;BME280;48016;50.284;18.860;2023-05-09T07:41:17;98973.95;;;13.98;42.10
62057;BME280;48016;50.284;18.860;2023-05-09T07:43:44;98967.88;;;14.09;42.05
62057;BME280;48016;50.284;18.860;2023-05-09T07:46:10;98970.48;;;14.18;41.56
62057;BME280;48016;50.284;18.860;2023-05-09T07:48:37;98965.83;;;14.11;41.02
62057;BME280;48016;50.284;18.860;2023-05-09T07:51:04;98971.77;;;14.04;41.01
62057;BME280;48016;50.284;18.860;2023-05-09T07:53:31;98971.60;;;13.96;40.87
62057;BME280;48016;50.284;18.860;2023-05-09T07:55:57;98965.23;;;13.97;41.26
62057;BME280;48016;50.284;18.860;2023-05-09T07:58:24;98960.25;;;13.92;41.16
62057;BME280;48016;50.284;18.860;2023-05-09T08:00:51;98964.20;;;13.88;41.26
62057;BME280;48016;50.284;18.860;2023-05-09T08:03:17;98960.51;;;13.82;41.73
62057;BME280;48016;50.284;18.860;2023-05-09T08:05:45;98956.84;;;13.86;41.80
62057;BME280;48016;50.284;18.860;2023-05-09T08:08:12;98959.31;;;13.89;41.94
62057;BME280;48016;50.284;18.860;2023-05-09T08:10:39;98950.61;;;13.97;41.68
62057;BME280;48016;50.284;18.860;2023-05-09T08:13:05;98952.58;;;13.97;41.55
62057;BME280;48016;50.284;18.860;2023-05-09T08:15:32;98951.52;;;13.92;41.59
62057;BME280;48016;50.284;18.860;2023-05-09T08:17:58;98952.52;;;13.83;41.31
62057;BME280;48016;50.284;18.860;2023-05-09T08:20:25;98949.48;;;13.81;41.39
62057;BME280;48016;50.284;18.860;2023-05-09T08:22:52;98946.15;;;13.67;41.27
62057;BME280;48016;50.284;18.860;2023-05-09T08:25:18;98951.77;;;13.65;41.52
62057;BME280;48016;50.284;18.860;2023-05-09T08:27:45;98947.37;;;13.64;41.41
62057;BME280;48016;50.284;18.860;2023-05-09T08:30:13;98950.63;;;13.51;41.62
62057;BME280;48016;50.284;18.860;2023-05-09T08:32:39;98938.10;;;13.54;42.15
62057;BME280;48016;50.284;18.860;2023-05-09T08:35:06;98939.70;;;13.75;42.23
62057;BME280;48016;50.284;18.860;2023-05-09T08:37:35;98942.11;;;13.78;41.16
62057;BME280;48016;50.284;18.860;2023-05-09T08:40:03;98933.80;;;13.79;41.65
62057;BME280;48016;50.284;18.860;2023-05-09T08:42:39;98928.02;;;13.82;41.77
62057;BME280;48016;50.284;18.860;2023-05-09T08:45:09;98924.61;;;13.87;41.25
62057;BME280;48016;50.284;18.860;2023-05-09T08:47:36;98916.98;;;13.84;41.32
62057;BME280;48016;50.284;18.860;2023-05-09T08:50:04;98916.34;;;13.78;41.19
62057;BME280;48016;50.284;18.860;2023-05-09T08:52:32;98912.59;;;13.78;41.89
62057;BME280;48016;50.284;18.860;2023-05-09T08:54:59;98912.42;;;13.85;41.71
62057;BME280;48016;50.284;18.860;2023-05-09T08:57:27;98918.29;;;14.00;41.85
62057;BME280;48016;50.284;18.860;2023-05-09T08:59:54;98915.30;;;13.91;41.30
62057;BME280;48016;50.284;18.860;2023-05-09T09:02:21;98921.00;;;13.84;41.82
62057;BME280;48016;50.284;18.860;2023-05-09T09:04:48;98920.65;;;13.87;41.87
62057;BME280;48016;50.284;18.860;2023-05-09T09:07:15;98913.77;;;13.75;41.96
62057;BME280;48016;50.284;18.860;2023-05-09T09:09:45;98911.98;;;13.76;42.55
62057;BME280;48016;50.284;18.860;2023-05-09T09:12:15;98912.42;;;13.78;42.76
62057;BME280;48016;50.284;18.860;2023-05-09T09:14:49;98908.88;;;13.90;43.25
62057;BME280;48016;50.284;18.860;2023-05-09T09:17:19;98912.95;;;14.10;43.09
62057;BME280;48016;50.284;18.860;2023-05-09T09:19:48;98910.55;;;14.26;42.79
62057;BME280;48016;50.284;18.860;2023-05-09T09:22:18;98910.16;;;14.35;43.35
62057;BME280;48016;50.284;18.860;2023-05-09T09:24:45;98909.30;;;14.35;41.97
62057;BME280;48016;50.284;18.860;2023-05-09T09:27:11;98914.20;;;14.08;41.95
62057;BME280;48016;50.284;18.860;2023-05-09T09:29:38;98911.45;;;13.93;42.41
62057;BME280;48016;50.284;18.860;2023-05-09T09:32:05;98907.29;;;13.95;42.85
62057;BME280;48016;50.284;18.860;2023-05-09T09:34:32;98905.38;;;13.97;42.72
62057;BME280;48016;50.284;18.860;2023-05-09T09:36:59;98905.29;;;14.09;42.63
62057;BME280;48016;50.284;18.860;2023-05-09T09:39:26;98905.51;;;14.30;43.32
62057;BME280;48016;50.284;18.860;2023-05-09T09:41:52;98895.32;;;14.57;43.69
62057;BME280;48016;50.284;18.860;2023-05-09T09:44:20;98895.63;;;14.78;42.79
62057;BME280;48016;50.284;18.860;2023-05-09T09:46:52;98898.38;;;14.91;42.54
62057;BME280;48016;50.284;18.860;2023-05-09T09:49:23;98900.15;;;15.03;42.02
62057;BME280;48016;50.284;18.860;2023-05-09T09:51:55;98897.40;;;14.99;41.46
62057;BME280;48016;50.284;18.860;2023-05-09T09:54:25;98893.21;;;14.96;41.44
62057;BME280;48016;50.284;18.860;2023-05-09T09:56:52;98893.36;;;14.75;41.48
62057;BME280;48016;50.284;18.860;2023-05-09T09:59:21;98895.68;;;14.80;41.46
62057;BME280;48016;50.284;18.860;2023-05-09T10:02:01;98891.16;;;14.81;40.69
62057;BME280;48016;50.284;18.860;2023-05-09T10:04:31;98895.45;;;14.79;40.60
62057;BME280;48016;50.284;18.860;2023-05-09T10:06:59;98888.64;;;14.75;40.28
62057;BME280;48016;50.284;18.860;2023-05-09T10:09:28;98885.29;;;14.82;40.63
62057;BME280;48016;50.284;18.860;2023-05-09T10:11:55;98872.63;;;14.96;40.53
62057;BME280;48016;50.284;18.860;2023-05-09T10:14:23;98880.23;;;15.12;41.35
62057;BME280;48016;50.284;18.860;2023-05-09T10:16:55;98870.59;;;15.13;41.15
62057;BME280;48016;50.284;18.860;2023-05-09T10:19:25;98871.46;;;15.15;40.22
62057;BME280;48016;50.284;18.860;2023-05-09T10:22:07;98871.07;;;15.08;40.08
62057;BME280;48016;50.284;18.860;2023-05-09T10:24:42;98869.23;;;14.90;39.84
62057;BME280;48016;50.284;18.860;2023-05-09T10:27:10;98865.08;;;14.79;39.82
62057;BME280;48016;50.284;18.860;2023-05-09T10:29:48;98867.88;;;14.83;39.01
62057;BME280;48016;50.284;18.860;2023-05-09T10:32:22;98866.41;;;14.92;38.27
62057;BME280;48016;50.284;18.860;2023-05-09T10:35:00;98854.87;;;14.89;38.57
62057;BME280;48016;50.284;18.860;2023-05-09T10:37:27;98854.94;;;14.98;38.99
62057;BME280;48016;50.284;18.860;2023-05-09T10:39:54;98854.95;;;15.14;39.33
62057;BME280;48016;50.284;18.860;2023-05-09T10:42:22;98846.69;;;15.25;39.24
62057;BME280;48016;50.284;18.860;2023-05-09T10:44:51;98844.12;;;15.27;39.16
62057;BME280;48016;50.284;18.860;2023-05-09T10:47:19;98846.63;;;15.17;38.87
62057;BME280;48016;50.284;18.860;2023-05-09T10:49:48;98849.58;;;15.14;38.69
62057;BME280;48016;50.284;18.860;2023-05-09T10:52:15;98844.77;;;15.12;38.90
62057;BME280;48016;50.284;18.860;2023-05-09T10:54:42;98844.77;;;15.10;39.02
62057;BME280;48016;50.284;18.860;2023-05-09T10:57:09;98840.14;;;15.05;39.87
62057;BME280;48016;50.284;18.860;2023-05-09T10:59:37;98840.64;;;15.12;39.41
62057;BME280;48016;50.284;18.860;2023-05-09T11:02:11;98832.19;;;15.20;39.40
62057;BME280;48016;50.284;18.860;2023-05-09T11:04:39;98831.36;;;15.26;39.27
62057;BME280;48016;50.284;18.860;2023-05-09T11:07:24;98826.69;;;15.32;38.78
62057;BME280;48016;50.284;18.860;2023-05-09T11:10:05;98830.98;;;15.23;37.96
62057;BME280;48016;50.284;18.860;2023-05-09T11:12:32;98833.11;;;15.03;37.95
62057;BME280;48016;50.284;18.860;2023-05-09T11:15:06;98830.31;;;14.91;38.16
62057;BME280;48016;50.284;18.860;2023-05-09T11:17:37;98823.45;;;14.89;37.35
62057;BME280;48016;50.284;18.860;2023-05-09T11:20:04;98822.36;;;14.91;37.29
62057;BME280;48016;50.284;18.860;2023-05-09T11:22:40;98818.34;;;15.00;37.31
62057;BME280;48016;50.284;18.860;2023-05-09T11:25:12;98813.29;;;15.10;37.83
62057;BME280;48016;50.284;18.860;2023-05-09T11:27:48;98821.95;;;15.13;37.51
62057;BME280;48016;50.284;18.860;2023-05-09T11:30:18;98809.52;;;14.95;37.82
62057;BME280;48016;50.284;18.860;2023-05-09T11:32:45;98800.00;;;14.96;37.84
62057;BME280;48016;50.284;18.860;2023-05-09T11:35:18;98805.17;;;14.98;37.24
62057;BME280;48016;50.284;18.860;2023-05-09T11:38:02;98806.53;;;14.99;37.01
62057;BME280;48016;50.284;18.860;2023-05-09T11:40:31;98799.29;;;14.96;36.67
62057;BME280;48016;50.284;18.860;2023-05-09T11:42:59;98795.95;;;15.02;36.74
62057;BME280;48016;50.284;18.860;2023-05-09T11:45:28;98790.52;;;14.99;36.13
62057;BME280;48016;50.284;18.860;2023-05-09T11:47:55;98786.06;;;14.98;36.44
62057;BME280;48016;50.284;18.860;2023-05-09T11:50:26;98777.62;;;15.08;37.42
62057;BME280;48016;50.284;18.860;2023-05-09T11:52:53;98775.70;;;15.27;37.54
62057;BME280;48016;50.284;18.860;2023-05-09T11:55:20;98769.41;;;15.41;36.95
62057;BME280;48016;50.284;18.860;2023-05-09T11:57:50;98767.54;;;15.51;37.35
62057;BME280;48016;50.284;18.860;2023-05-09T12:00:22;98769.28;;;15.58;36.81
62057;BME280;48016;50.284;18.860;2023-05-09T12:02:50;98769.73;;;15.50;36.99
62057;BME280;48016;50.284;18.860;2023-05-09T12:05:18;98772.59;;;15.32;36.53
62057;BME280;48016;50.284;18.860;2023-05-09T12:07:46;98766.16;;;15.22;36.84
62057;BME280;48016;50.284;18.860;2023-05-09T12:10:20;98766.56;;;15.13;36.67
62057;BME280;48016;50.284;18.860;2023-05-09T12:12:50;98758.27;;;15.19;37.18
62057;BME280;48016;50.284;18.860;2023-05-09T12:15:18;98749.92;;;15.36;37.31
62057;BME280;48016;50.284;18.860;2023-05-09T12:17:45;98753.30;;;15.53;37.55
62057;BME280;48016;50.284;18.860;2023-05-09T12:20:13;98744.34;;;15.66;37.33
62057;BME280;48016;50.284;18.860;2023-05-09T12:22:42;98743.38;;;15.72;37.23
62057;BME280;48016;50.284;18.860;2023-05-09T12:25:09;98742.04;;;15.81;37.52
62057;BME280;48016;50.284;18.860;2023-05-09T12:27:38;98738.45;;;15.90;37.34
62057;BME280;48016;50.284;18.860;2023-05-09T12:30:08;98738.26;;;15.97;37.24
62057;BME280;48016;50.284;18.860;2023-05-09T12:32:36;98745.48;;;15.94;36.90
62057;BME280;48016;50.284;18.860;2023-05-09T12:35:06;98743.41;;;15.78;36.76
62057;BME280;48016;50.284;18.860;2023-05-09T12:37:33;98736.67;;;15.64;36.86
62057;BME280;48016;50.284;18.860;2023-05-09T12:42:31;98722.81;;;15.67;37.33
62057;BME280;48016;50.284;18.860;2023-05-09T12:45:00;98716.98;;;15.89;37.15
62057;BME280;48016;50.284;18.860;2023-05-09T12:47:28;98709.79;;;16.09;37.11
62057;BME280;48016;50.284;18.860;2023-05-09T12:49:58;98706.60;;;16.33;37.25
62057;BME280;48016;50.284;18.860;2023-05-09T12:52:36;98717.08;;;16.32;35.22
62057;BME280;48016;50.284;18.860;2023-05-09T12:55:10;98715.86;;;16.15;35.94
62057;BME280;48016;50.284;18.860;2023-05-09T12:57:38;98713.81;;;16.01;36.84
62057;BME280;48016;50.284;18.860;2023-05-09T13:00:07;98713.41;;;15.92;36.87
62057;BME280;48016;50.284;18.860;2023-05-09T13:02:39;98704.88;;;15.75;36.69
62057;BME280;48016;50.284;18.860;2023-05-09T13:05:12;98704.55;;;15.74;36.77
62057;BME280;48016;50.284;18.860;2023-05-09T13:07:45;98702.30;;;15.76;36.97
62057;BME280;48016;50.284;18.860;2023-05-09T13:10:14;98692.73;;;15.83;36.98